Terminal Aerodrome Forecast
Issued by NWS Topeka, KS

Home | Current Version | Previous Version | Text Only | Print | Product List | Glossary On
Versions: 1 2 3 4 5 6 7 8 9 10 11 12 13 14 15 16 17 18 19
310
FTUS43 KTOP 242123 AAA
TAFTOP
TAF AMD
KTOP 242123Z 2421/2518 12009KT P6SM VCTS SCT040CB BKN100
     FM242300 07008KT P6SM -TSRA BKN035CB
      TEMPO 2423/2503 2SM TSRA OVC015CB
     FM250300 01011KT P6SM -TSRA OVC015CB
     FM250800 34011G20KT 5SM -SHRA BR OVC009=

USA.gov is the U.S. government's official web portal to all federal, state and local government web resources and services.